sensor_id;sensor_type;location;lat;lon;timestamp;temperature;humidity
39189;DHT22;24915;50.858;4.376;2023-03-23T00:01:09;13.40;99.90
39189;DHT22;24915;50.858;4.376;2023-03-23T00:03:46;13.40;99.90
39189;DHT22;24915;50.858;4.376;2023-03-23T00:06:12;13.40;99.90
39189;DHT22;24915;50.858;4.376;2023-03-23T00:08:46;13.40;99.90
39189;DHT22;24915;50.858;4.376;2023-03-23T00:11:18;13.40;99.90
39189;DHT22;24915;50.858;4.376;2023-03-23T00:13:45;13.40;99.90
39189;DHT22;24915;50.858;4.376;2023-03-23T00:16:12;13.40;99.90
39189;DHT22;24915;50.858;4.376;2023-03-23T00:18:48;13.40;99.90
39189;DHT22;24915;50.858;4.376;2023-03-23T00:21:18;13.40;99.90
39189;DHT22;24915;50.858;4.376;2023-03-23T00:23:44;13.40;99.90
39189;DHT22;24915;50.858;4.376;2023-03-23T00:26:11;13.50;99.90
39189;DHT22;24915;50.858;4.376;2023-03-23T00:28:37;13.40;99.90
39189;DHT22;24915;50.858;4.376;2023-03-23T00:31:06;13.40;99.90
39189;DHT22;24915;50.858;4.376;2023-03-23T00:33:35;13.40;99.90
39189;DHT22;24915;50.858;4.376;2023-03-23T00:36:06;13.40;99.90
39189;DHT22;24915;50.858;4.376;2023-03-23T00:38:34;13.40;99.90
39189;DHT22;24915;50.858;4.376;2023-03-23T00:41:01;13.40;99.90
39189;DHT22;24915;50.858;4.376;2023-03-23T00:43:28;13.30;99.90
39189;DHT22;24915;50.858;4.376;2023-03-23T00:45:57;13.30;99.90
39189;DHT22;24915;50.858;4.376;2023-03-23T00:48:27;13.30;99.90
39189;DHT22;24915;50.858;4.376;2023-03-23T00:50:53;13.30;99.90
39189;DHT22;24915;50.858;4.376;2023-03-23T00:53:19;13.30;99.90
39189;DHT22;24915;50.858;4.376;2023-03-23T00:55:46;13.30;99.90
39189;DHT22;24915;50.858;4.376;2023-03-23T00:58:13;13.30;99.90
39189;DHT22;24915;50.858;4.376;2023-03-23T01:00:40;13.30;99.90
39189;DHT22;24915;50.858;4.376;2023-03-23T01:03:07;13.30;99.90
39189;DHT22;24915;50.858;4.376;2023-03-23T01:05:37;13.30;99.90
39189;DHT22;24915;50.858;4.376;2023-03-23T01:08:04;13.30;99.90
39189;DHT22;24915;50.858;4.376;2023-03-23T01:10:30;13.30;99.90
39189;DHT22;24915;50.858;4.376;2023-03-23T01:12:59;13.30;99.90
39189;DHT22;24915;50.858;4.376;2023-03-23T01:15:26;13.30;99.90
39189;DHT22;24915;50.858;4.376;2023-03-23T01:17:52;13.30;99.90
39189;DHT22;24915;50.858;4.376;2023-03-23T01:20:18;13.30;99.90
39189;DHT22;24915;50.858;4.376;2023-03-23T01:22:44;13.30;99.90
39189;DHT22;24915;50.858;4.376;2023-03-23T01:25:12;13.30;99.90
39189;DHT22;24915;50.858;4.376;2023-03-23T01:27:38;13.30;99.90
39189;DHT22;24915;50.858;4.376;2023-03-23T01:30:06;13.30;99.90
39189;DHT22;24915;50.858;4.376;2023-03-23T01:32:33;13.30;99.90
39189;DHT22;24915;50.858;4.376;2023-03-23T01:34:59;13.30;99.90
39189;DHT22;24915;50.858;4.376;2023-03-23T01:37:25;13.30;99.90
39189;DHT22;24915;50.858;4.376;2023-03-23T01:39:56;13.30;99.90
39189;DHT22;24915;50.858;4.376;2023-03-23T01:42:31;13.30;99.90
39189;DHT22;24915;50.858;4.376;2023-03-23T01:47:47;13.30;99.90
39189;DHT22;24915;50.858;4.376;2023-03-23T01:50:15;13.30;99.90
39189;DHT22;24915;50.858;4.376;2023-03-23T01:52:41;13.30;99.90
39189;DHT22;24915;50.858;4.376;2023-03-23T01:55:07;13.30;99.90
39189;DHT22;24915;50.858;4.376;2023-03-23T01:57:33;13.30;99.90
39189;DHT22;24915;50.858;4.376;2023-03-23T02:00:03;13.30;99.90
39189;DHT22;24915;50.858;4.376;2023-03-23T02:02:50;13.30;99.90
39189;DHT22;24915;50.858;4.376;2023-03-23T02:05:29;13.30;99.90
39189;DHT22;24915;50.858;4.376;2023-03-23T02:07:58;13.30;99.90
39189;DHT22;24915;50.858;4.376;2023-03-23T02:10:32;13.30;99.90
39189;DHT22;24915;50.858;4.376;2023-03-23T02:13:03;13.20;99.90
39189;DHT22;24915;50.858;4.376;2023-03-23T02:21:54;13.20;99.90
39189;DHT22;24915;50.858;4.376;2023-03-23T02:32:55;13.20;99.90
39189;DHT22;24915;50.858;4.376;2023-03-23T02:35:39;13.20;99.90
39189;DHT22;24915;50.858;4.376;2023-03-23T02:38:19;13.20;99.90
39189;DHT22;24915;50.858;4.376;2023-03-23T02:40:48;13.20;99.90
39189;DHT22;24915;50.858;4.376;2023-03-23T02:43:17;13.10;99.90
39189;DHT22;24915;50.858;4.376;2023-03-23T02:45:45;13.10;99.90
39189;DHT22;24915;50.858;4.376;2023-03-23T02:48:14;13.10;99.90
39189;DHT22;24915;50.858;4.376;2023-03-23T02:50:44;13.10;99.90
39189;DHT22;24915;50.858;4.376;2023-03-23T02:53:12;13.10;99.90
39189;DHT22;24915;50.858;4.376;2023-03-23T02:55:42;13.10;99.90
39189;DHT22;24915;50.858;4.376;2023-03-23T02:58:09;13.10;99.90
39189;DHT22;24915;50.858;4.376;2023-03-23T03:00:35;13.10;99.90
39189;DHT22;24915;50.858;4.376;2023-03-23T03:03:01;13.00;99.90
39189;DHT22;24915;50.858;4.376;2023-03-23T03:06:25;13.10;99.90
39189;DHT22;24915;50.858;4.376;2023-03-23T03:11:22;13.10;99.90
39189;DHT22;24915;50.858;4.376;2023-03-23T03:16:45;13.10;99.90
39189;DHT22;24915;50.858;4.376;2023-03-23T03:19:54;13.00;99.90
39189;DHT22;24915;50.858;4.376;2023-03-23T03:22:01;13.00;99.90
39189;DHT22;24915;50.858;4.376;2023-03-23T03:24:29;13.00;99.90
39189;DHT22;24915;50.858;4.376;2023-03-23T03:26:58;13.10;99.90
39189;DHT22;24915;50.858;4.376;2023-03-23T03:29:28;13.10;99.90
39189;DHT22;24915;50.858;4.376;2023-03-23T03:31:56;13.10;99.90
39189;DHT22;24915;50.858;4.376;2023-03-23T03:34:24;13.10;99.90
39189;DHT22;24915;50.858;4.376;2023-03-23T03:36:52;13.10;99.90
39189;DHT22;24915;50.858;4.376;2023-03-23T03:39:19;13.10;99.90
39189;DHT22;24915;50.858;4.376;2023-03-23T03:41:47;13.10;99.90
39189;DHT22;24915;50.858;4.376;2023-03-23T03:44:13;13.10;99.90
39189;DHT22;24915;50.858;4.376;2023-03-23T03:46:39;13.10;99.90
39189;DHT22;24915;50.858;4.376;2023-03-23T03:49:07;13.10;99.90
39189;DHT22;24915;50.858;4.376;2023-03-23T03:51:34;13.10;99.90
39189;DHT22;24915;50.858;4.376;2023-03-23T03:54:01;13.10;99.90
39189;DHT22;24915;50.858;4.376;2023-03-23T03:56:26;13.10;99.90
39189;DHT22;24915;50.858;4.376;2023-03-23T03:58:52;13.10;99.90
39189;DHT22;24915;50.858;4.376;2023-03-23T04:01:20;13.10;99.90
39189;DHT22;24915;50.858;4.376;2023-03-23T04:03:49;13.10;99.90
39189;DHT22;24915;50.858;4.376;2023-03-23T04:06:17;13.10;99.90
39189;DHT22;24915;50.858;4.376;2023-03-23T04:08:43;13.10;99.90
39189;DHT22;24915;50.858;4.376;2023-03-23T04:11:14;13.10;99.90
39189;DHT22;24915;50.858;4.376;2023-03-23T04:13:40;13.10;99.90
39189;DHT22;24915;50.858;4.376;2023-03-23T04:16:06;13.10;99.90
39189;DHT22;24915;50.858;4.376;2023-03-23T04:18:33;13.10;99.90
39189;DHT22;24915;50.858;4.376;2023-03-23T04:20:59;13.10;99.90
39189;DHT22;24915;50.858;4.376;2023-03-23T04:23:27;13.00;99.90
39189;DHT22;24915;50.858;4.376;2023-03-23T04:25:56;13.00;99.90
39189;DHT22;24915;50.858;4.376;2023-03-23T04:28:24;13.00;99.90
39189;DHT22;24915;50.858;4.376;2023-03-23T04:30:51;13.00;99.90
39189;DHT22;24915;50.858;4.376;2023-03-23T04:33:21;12.90;99.90
39189;DHT22;24915;50.858;4.376;2023-03-23T04:35:48;12.90;99.90
39189;DHT22;24915;50.858;4.376;2023-03-23T04:38:17;12.90;99.90
39189;DHT22;24915;50.858;4.376;2023-03-23T04:40:47;12.90;99.90
39189;DHT22;24915;50.858;4.376;2023-03-23T04:43:21;12.90;99.90
39189;DHT22;24915;50.858;4.376;2023-03-23T04:45:56;12.90;99.90
39189;DHT22;24915;50.858;4.376;2023-03-23T04:48:23;12.90;99.90
39189;DHT22;24915;50.858;4.376;2023-03-23T04:50:49;12.90;99.90
39189;DHT22;24915;50.858;4.376;2023-03-23T04:53:16;12.90;99.90
39189;DHT22;24915;50.858;4.376;2023-03-23T04:55:44;12.90;99.90
39189;DHT22;24915;50.858;4.376;2023-03-23T04:58:10;12.80;99.90
39189;DHT22;24915;50.858;4.376;2023-03-23T05:00:39;12.80;99.90
39189;DHT22;24915;50.858;4.376;2023-03-23T05:03:05;12.80;99.90
39189;DHT22;24915;50.858;4.376;2023-03-23T05:05:33;12.80;99.90
39189;DHT22;24915;50.858;4.376;2023-03-23T05:08:00;12.80;99.90
39189;DHT22;24915;50.858;4.376;2023-03-23T05:10:25;12.80;99.90
39189;DHT22;24915;50.858;4.376;2023-03-23T05:12:53;12.80;99.90
39189;DHT22;24915;50.858;4.376;2023-03-23T05:15:18;12.80;99.90
39189;DHT22;24915;50.858;4.376;2023-03-23T05:17:45;12.80;99.90
39189;DHT22;24915;50.858;4.376;2023-03-23T05:20:15;12.70;99.90
39189;DHT22;24915;50.858;4.376;2023-03-23T05:22:44;12.70;99.90
39189;DHT22;24915;50.858;4.376;2023-03-23T05:25:10;12.70;99.90
39189;DHT22;24915;50.858;4.376;2023-03-23T05:27:37;12.70;99.90
39189;DHT22;24915;50.858;4.376;2023-03-23T05:30:04;12.70;99.90
39189;DHT22;24915;50.858;4.376;2023-03-23T05:32:30;12.70;99.90
39189;DHT22;24915;50.858;4.376;2023-03-23T05:34:57;12.70;99.90
39189;DHT22;24915;50.858;4.376;2023-03-23T05:37:25;12.70;99.90
39189;DHT22;24915;50.858;4.376;2023-03-23T05:39:52;12.70;99.90
39189;DHT22;24915;50.858;4.376;2023-03-23T05:42:19;12.70;99.90
39189;DHT22;24915;50.858;4.376;2023-03-23T05:44:46;12.70;99.90
39189;DHT22;24915;50.858;4.376;2023-03-23T05:47:12;12.70;99.90
39189;DHT22;24915;50.858;4.376;2023-03-23T05:49:38;12.70;99.90
39189;DHT22;24915;50.858;4.376;2023-03-23T05:52:04;12.70;99.90
39189;DHT22;24915;50.858;4.376;2023-03-23T05:54:30;12.70;99.90
39189;DHT22;24915;50.858;4.376;2023-03-23T05:56:56;12.70;99.90
39189;DHT22;24915;50.858;4.376;2023-03-23T05:59:23;12.70;99.90
39189;DHT22;24915;50.858;4.376;2023-03-23T06:01:48;12.70;99.90
39189;DHT22;24915;50.858;4.376;2023-03-23T06:04:15;12.70;99.90
39189;DHT22;24915;50.858;4.376;2023-03-23T06:06:42;12.70;99.90
39189;DHT22;24915;50.858;4.376;2023-03-23T06:09:09;12.70;99.90
39189;DHT22;24915;50.858;4.376;2023-03-23T06:11:35;12.80;99.90
39189;DHT22;24915;50.858;4.376;2023-03-23T06:14:01;12.80;99.90
39189;DHT22;24915;50.858;4.376;2023-03-23T06:16:27;12.70;99.90
39189;DHT22;24915;50.858;4.376;2023-03-23T06:18:52;12.70;99.90
39189;DHT22;24915;50.858;4.376;2023-03-23T06:21:18;12.70;99.90
39189;DHT22;24915;50.858;4.376;2023-03-23T06:23:45;12.70;99.90
39189;DHT22;24915;50.858;4.376;2023-03-23T06:26:13;12.80;99.90
39189;DHT22;24915;50.858;4.376;2023-03-23T06:28:40;12.80;99.90
39189;DHT22;24915;50.858;4.376;2023-03-23T06:31:06;12.80;99.90
39189;DHT22;24915;50.858;4.376;2023-03-23T06:33:34;12.80;99.90
39189;DHT22;24915;50.858;4.376;2023-03-23T06:36:00;12.80;99.90
39189;DHT22;24915;50.858;4.376;2023-03-23T06:38:26;12.80;99.90
39189;DHT22;24915;50.858;4.376;2023-03-23T06:40:52;12.80;99.90
39189;DHT22;24915;50.858;4.376;2023-03-23T06:43:19;12.90;99.90
39189;DHT22;24915;50.858;4.376;2023-03-23T06:45:45;12.90;99.90
39189;DHT22;24915;50.858;4.376;2023-03-23T06:48:11;12.80;99.90
39189;DHT22;24915;50.858;4.376;2023-03-23T06:50:37;12.80;99.90
39189;DHT22;24915;50.858;4.376;2023-03-23T06:53:03;12.70;99.90
39189;DHT22;24915;50.858;4.376;2023-03-23T06:55:29;12.70;99.90
39189;DHT22;24915;50.858;4.376;2023-03-23T06:57:54;12.70;99.90
39189;DHT22;24915;50.858;4.376;2023-03-23T07:00:20;12.70;99.90
39189;DHT22;24915;50.858;4.376;2023-03-23T07:02:46;12.60;99.90
39189;DHT22;24915;50.858;4.376;2023-03-23T07:05:12;12.50;99.90
39189;DHT22;24915;50.858;4.376;2023-03-23T07:07:39;12.50;99.90
39189;DHT22;24915;50.858;4.376;2023-03-23T07:10:07;12.40;99.90
39189;DHT22;24915;50.858;4.376;2023-03-23T07:12:35;12.30;99.90
39189;DHT22;24915;50.858;4.376;2023-03-23T07:15:02;12.10;99.90
39189;DHT22;24915;50.858;4.376;2023-03-23T07:17:28;11.90;99.90
39189;DHT22;24915;50.858;4.376;2023-03-23T07:19:54;11.80;99.90
39189;DHT22;24915;50.858;4.376;2023-03-23T07:22:19;11.60;99.90
39189;DHT22;24915;50.858;4.376;2023-03-23T07:24:45;11.50;99.90
39189;DHT22;24915;50.858;4.376;2023-03-23T07:27:11;11.40;99.90
39189;DHT22;24915;50.858;4.376;2023-03-23T07:29:37;11.30;99.90
39189;DHT22;24915;50.858;4.376;2023-03-23T07:32:04;11.10;99.90
39189;DHT22;24915;50.858;4.376;2023-03-23T07:34:30;11.00;99.90
39189;DHT22;24915;50.858;4.376;2023-03-23T07:36:57;10.90;99.90
39189;DHT22;24915;50.858;4.376;2023-03-23T07:39:23;10.90;99.90
39189;DHT22;24915;50.858;4.376;2023-03-23T07:41:50;10.90;99.90
39189;DHT22;24915;50.858;4.376;2023-03-23T07:44:16;10.80;99.90
39189;DHT22;24915;50.858;4.376;2023-03-23T07:46:41;10.90;99.90
39189;DHT22;24915;50.858;4.376;2023-03-23T07:49:07;10.90;99.90
39189;DHT22;24915;50.858;4.376;2023-03-23T07:51:33;10.90;99.90
39189;DHT22;24915;50.858;4.376;2023-03-23T07:54:00;10.90;99.90
39189;DHT22;24915;50.858;4.376;2023-03-23T07:56:28;10.90;99.90
39189;DHT22;24915;50.858;4.376;2023-03-23T07:58:54;11.00;99.90
39189;DHT22;24915;50.858;4.376;2023-03-23T08:01:20;11.10;99.90
39189;DHT22;24915;50.858;4.376;2023-03-23T08:03:46;11.10;99.90
39189;DHT22;24915;50.858;4.376;2023-03-23T08:06:12;11.20;99.90
39189;DHT22;24915;50.858;4.376;2023-03-23T08:08:38;11.20;99.90
39189;DHT22;24915;50.858;4.376;2023-03-23T08:11:05;11.30;99.90
39189;DHT22;24915;50.858;4.376;2023-03-23T08:13:32;11.30;99.90
39189;DHT22;24915;50.858;4.376;2023-03-23T08:15:59;11.40;99.90
39189;DHT22;24915;50.858;4.376;2023-03-23T08:18:29;11.40;99.90
39189;DHT22;24915;50.858;4.376;2023-03-23T08:20:55;11.50;99.90
39189;DHT22;24915;50.858;4.376;2023-03-23T08:23:21;11.40;99.90
39189;DHT22;24915;50.858;4.376;2023-03-23T08:25:47;11.40;99.90
39189;DHT22;24915;50.858;4.376;2023-03-23T08:28:13;11.30;99.90
39189;DHT22;24915;50.858;4.376;2023-03-23T08:30:40;11.30;99.90
39189;DHT22;24915;50.858;4.376;2023-03-23T08:33:07;11.20;99.90
39189;DHT22;24915;50.858;4.376;2023-03-23T08:35:34;11.10;99.90
39189;DHT22;24915;50.858;4.376;2023-03-23T08:37:59;11.10;99.90
39189;DHT22;24915;50.858;4.376;2023-03-23T08:40:26;11.00;99.90
39189;DHT22;24915;50.858;4.376;2023-03-23T08:42:52;10.90;99.90
39189;DHT22;24915;50.858;4.376;2023-03-23T08:45:21;10.90;99.90
39189;DHT22;24915;50.858;4.376;2023-03-23T08:47:47;10.80;99.90
39189;DHT22;24915;50.858;4.376;2023-03-23T08:50:20;10.80;99.90
39189;DHT22;24915;50.858;4.376;2023-03-23T08:52:46;10.70;99.90
39189;DHT22;24915;50.858;4.376;2023-03-23T08:55:12;10.80;99.90
39189;DHT22;24915;50.858;4.376;2023-03-23T08:57:38;10.80;99.90
39189;DHT22;24915;50.858;4.376;2023-03-23T09:00:08;10.90;99.90
39189;DHT22;24915;50.858;4.376;2023-03-23T09:02:42;10.90;99.90
39189;DHT22;24915;50.858;4.376;2023-03-23T09:05:09;10.90;99.90
39189;DHT22;24915;50.858;4.376;2023-03-23T09:07:38;11.00;99.90
39189;DHT22;24915;50.858;4.376;2023-03-23T09:10:04;10.90;99.90
39189;DHT22;24915;50.858;4.376;2023-03-23T09:12:30;11.00;99.90
39189;DHT22;24915;50.858;4.376;2023-03-23T09:14:55;11.00;99.90
39189;DHT22;24915;50.858;4.376;2023-03-23T09:17:21;11.10;99.90
39189;DHT22;24915;50.858;4.376;2023-03-23T09:19:47;11.10;99.90
39189;DHT22;24915;50.858;4.376;2023-03-23T09:22:12;11.00;99.90
39189;DHT22;24915;50.858;4.376;2023-03-23T09:24:39;11.10;99.90
39189;DHT22;24915;50.858;4.376;2023-03-23T09:27:05;11.20;99.90
39189;DHT22;24915;50.858;4.376;2023-03-23T09:29:30;11.20;99.90
39189;DHT22;24915;50.858;4.376;2023-03-23T09:31:56;11.20;99.90
39189;DHT22;24915;50.858;4.376;2023-03-23T09:34:22;11.20;99.90
39189;DHT22;24915;50.858;4.376;2023-03-23T09:36:47;11.20;99.90
39189;DHT22;24915;50.858;4.376;2023-03-23T09:39:13;11.20;99.90
39189;DHT22;24915;50.858;4.376;2023-03-23T09:42:11;11.30;99.90
39189;DHT22;24915;50.858;4.376;2023-03-23T09:45:02;11.30;99.90
39189;DHT22;24915;50.858;4.376;2023-03-23T09:50:12;11.70;99.90
39189;DHT22;24915;50.858;4.376;2023-03-23T09:52:44;11.90;99.90
39189;DHT22;24915;50.858;4.376;2023-03-23T09:55:15;11.90;99.90
39189;DHT22;24915;50.858;4.376;2023-03-23T10:00:39;12.30;99.90
39189;DHT22;24915;50.858;4.376;2023-03-23T10:03:21;12.30;99.90
39189;DHT22;24915;50.858;4.376;2023-03-23T10:05:52;12.40;99.90
39189;DHT22;24915;50.858;4.376;2023-03-23T10:08:29;12.50;99.90
39189;DHT22;24915;50.858;4.376;2023-03-23T10:14:06;12.60;99.90
39189;DHT22;24915;50.858;4.376;2023-03-23T10:16:47;12.60;99.90
39189;DHT22;24915;50.858;4.376;2023-03-23T10:19:35;12.60;99.90
39189;DHT22;24915;50.858;4.376;2023-03-23T10:22:09;12.70;99.90
39189;DHT22;24915;50.858;4.376;2023-03-23T10:24:42;12.80;99.90
39189;DHT22;24915;50.858;4.376;2023-03-23T10:29:47;13.00;99.90
39189;DHT22;24915;50.858;4.376;2023-03-23T10:32:18;13.10;99.90
39189;DHT22;24915;50.858;4.376;2023-03-23T10:34:52;13.10;99.90
39189;DHT22;24915;50.858;4.376;2023-03-23T10:37:22;13.10;99.90
39189;DHT22;24915;50.858;4.376;2023-03-23T10:39:50;13.00;99.90
39189;DHT22;24915;50.858;4.376;2023-03-23T10:42:43;12.90;99.90
39189;DHT22;24915;50.858;4.376;2023-03-23T10:50:36;13.00;99.90
39189;DHT22;24915;50.858;4.376;2023-03-23T10:53:51;13.20;99.90
39189;DHT22;24915;50.858;4.376;2023-03-23T10:55:52;13.40;99.90
39189;DHT22;24915;50.858;4.376;2023-03-23T10:58:25;13.40;99.90
39189;DHT22;24915;50.858;4.376;2023-03-23T11:00:54;13.50;99.90
39189;DHT22;24915;50.858;4.376;2023-03-23T11:03:37;13.60;99.90
39189;DHT22;24915;50.858;4.376;2023-03-23T11:06:06;13.80;99.90
39189;DHT22;24915;50.858;4.376;2023-03-23T11:08:52;13.80;99.90
39189;DHT22;24915;50.858;4.376;2023-03-23T11:11:29;14.00;99.90
39189;DHT22;24915;50.858;4.376;2023-03-23T11:14:13;14.30;99.90
39189;DHT22;24915;50.858;4.376;2023-03-23T11:16:53;14.50;99.90
39189;DHT22;24915;50.858;4.376;2023-03-23T11:19:34;14.50;99.90
39189;DHT22;24915;50.858;4.376;2023-03-23T11:24:41;14.30;99.90
39189;DHT22;24915;50.858;4.376;2023-03-23T11:27:07;14.20;99.90
39189;DHT22;24915;50.858;4.376;2023-03-23T11:29:35;14.20;99.90
39189;DHT22;24915;50.858;4.376;2023-03-23T11:32:06;14.30;99.90
39189;DHT22;24915;50.858;4.376;2023-03-23T11:34:43;14.70;99.90
39189;DHT22;24915;50.858;4.376;2023-03-23T11:39:58;15.40;99.90
39189;DHT22;24915;50.858;4.376;2023-03-23T11:42:46;15.40;99.90
39189;DHT22;24915;50.858;4.376;2023-03-23T11:45:33;15.50;99.90
39189;DHT22;24915;50.858;4.376;2023-03-23T11:48:23;15.60;99.90
39189;DHT22;24915;50.858;4.376;2023-03-23T11:51:00;15.80;99.90
39189;DHT22;24915;50.858;4.376;2023-03-23T11:53:43;15.90;99.90
39189;DHT22;24915;50.858;4.376;2023-03-23T11:56:33;15.90;99.90
39189;DHT22;24915;50.858;4.376;2023-03-23T11:59:01;15.90;99.90
39189;DHT22;24915;50.858;4.376;2023-03-23T12:01:36;15.80;99.90
39189;DHT22;24915;50.858;4.376;2023-03-23T12:20:51;16.50;99.90
39189;DHT22;24915;50.858;4.376;2023-03-23T12:23:22;16.60;99.90
39189;DHT22;24915;50.858;4.376;2023-03-23T12:33:59;16.60;99.90
39189;DHT22;24915;50.858;4.376;2023-03-23T12:36:52;16.80;99.90
39189;DHT22;24915;50.858;4.376;2023-03-23T12:42:03;16.70;99.90
39189;DHT22;24915;50.858;4.376;2023-03-23T12:47:34;17.00;99.90
39189;DHT22;24915;50.858;4.376;2023-03-23T12:55:46;16.90;99.90
39189;DHT22;24915;50.858;4.376;2023-03-23T12:58:26;16.60;99.90
39189;DHT22;24915;50.858;4.376;2023-03-23T13:01:04;16.40;99.90
39189;DHT22;24915;50.858;4.376;2023-03-23T13:09:10;16.00;99.90
39189;DHT22;24915;50.858;4.376;2023-03-23T13:11:39;16.20;99.90
39189;DHT22;24915;50.858;4.376;2023-03-23T13:23:36;16.10;99.90
39189;DHT22;24915;50.858;4.376;2023-03-23T13:26:12;16.50;99.90
39189;DHT22;24915;50.858;4.376;2023-03-23T13:31:17;16.50;99.90
39189;DHT22;24915;50.858;4.376;2023-03-23T13:33:49;16.50;99.90
39189;DHT22;24915;50.858;4.376;2023-03-23T13:36:29;16.70;99.90
39189;DHT22;24915;50.858;4.376;2023-03-23T13:38:57;16.90;99.90
39189;DHT22;24915;50.858;4.376;2023-03-23T13:41:24;17.10;99.90
39189;DHT22;24915;50.858;4.376;2023-03-23T13:43:51;17.00;99.90
39189;DHT22;24915;50.858;4.376;2023-03-23T13:46:29;16.70;99.90
39189;DHT22;24915;50.858;4.376;2023-03-23T13:49:20;16.50;99.90
39189;DHT22;24915;50.858;4.376;2023-03-23T13:52:00;16.40;99.90
39189;DHT22;24915;50.858;4.376;2023-03-23T13:57:37;16.10;99.90
39189;DHT22;24915;50.858;4.376;2023-03-23T14:03:05;15.90;99.90
39189;DHT22;24915;50.858;4.376;2023-03-23T14:05:44;15.70;99.90
39189;DHT22;24915;50.858;4.376;2023-03-23T14:11:22;15.50;99.90
39189;DHT22;24915;50.858;4.376;2023-03-23T14:16:03;15.00;99.90
39189;DHT22;24915;50.858;4.376;2023-03-23T14:18:38;15.20;99.90
39189;DHT22;24915;50.858;4.376;2023-03-23T14:21:05;15.70;99.90
39189;DHT22;24915;50.858;4.376;2023-03-23T14:23:34;16.00;99.90
39189;DHT22;24915;50.858;4.376;2023-03-23T14:26:03;16.30;99.90
39189;DHT22;24915;50.858;4.376;2023-03-23T14:28:37;16.70;99.90
39189;DHT22;24915;50.858;4.376;2023-03-23T14:31:04;16.60;99.90
39189;DHT22;24915;50.858;4.376;2023-03-23T14:33:30;16.30;99.90
39189;DHT22;24915;50.858;4.376;2023-03-23T14:35:58;15.90;99.90
39189;DHT22;24915;50.858;4.376;2023-03-23T14:38:25;15.80;99.90
39189;DHT22;24915;50.858;4.376;2023-03-23T14:41:03;15.70;99.90
39189;DHT22;24915;50.858;4.376;2023-03-23T14:43:29;15.60;99.90
39189;DHT22;24915;50.858;4.376;2023-03-23T14:45:58;15.50;99.90
39189;DHT22;24915;50.858;4.376;2023-03-23T14:48:25;15.40;99.90
39189;DHT22;24915;50.858;4.376;2023-03-23T14:50:59;15.30;99.90
39189;DHT22;24915;50.858;4.376;2023-03-23T14:53:32;15.30;99.90
39189;DHT22;24915;50.858;4.376;2023-03-23T14:56:01;15.20;99.90
39189;DHT22;24915;50.858;4.376;2023-03-23T14:58:29;15.20;99.90
39189;DHT22;24915;50.858;4.376;2023-03-23T15:00:59;16.20;99.90
39189;DHT22;24915;50.858;4.376;2023-03-23T15:03:28;17.80;99.90
39189;DHT22;24915;50.858;4.376;2023-03-23T15:05:59;18.80;99.90
39189;DHT22;24915;50.858;4.376;2023-03-23T15:08:32;20.00;99.90
39189;DHT22;24915;50.858;4.376;2023-03-23T15:13:47;18.60;99.90
39189;DHT22;24915;50.858;4.376;2023-03-23T15:16:19;17.60;99.90
39189;DHT22;24915;50.858;4.376;2023-03-23T15:23:51;17.40;99.90
39189;DHT22;24915;50.858;4.376;2023-03-23T15:26:25;17.20;99.90
39189;DHT22;24915;50.858;4.376;2023-03-23T15:29:22;16.60;99.90
39189;DHT22;24915;50.858;4.376;2023-03-23T15:31:52;16.20;99.90
39189;DHT22;24915;50.858;4.376;2023-03-23T15:34:25;16.00;99.90
39189;DHT22;24915;50.858;4.376;2023-03-23T15:36:57;15.90;99.90
39189;DHT22;24915;50.858;4.376;2023-03-23T15:39:24;15.90;99.90
39189;DHT22;24915;50.858;4.376;2023-03-23T15:41:51;15.80;99.90
39189;DHT22;24915;50.858;4.376;2023-03-23T15:44:23;15.70;99.90
39189;DHT22;24915;50.858;4.376;2023-03-23T15:46:51;15.60;99.90
39189;DHT22;24915;50.858;4.376;2023-03-23T15:49:18;15.60;99.90
39189;DHT22;24915;50.858;4.376;2023-03-23T15:51:44;15.60;99.90
39189;DHT22;24915;50.858;4.376;2023-03-23T15:54:14;15.50;99.90
39189;DHT22;24915;50.858;4.376;2023-03-23T15:56:41;15.50;99.90
39189;DHT22;24915;50.858;4.376;2023-03-23T15:59:08;15.50;99.90
39189;DHT22;24915;50.858;4.376;2023-03-23T16:01:34;15.60;99.90
39189;DHT22;24915;50.858;4.376;2023-03-23T16:04:10;15.70;99.90
39189;DHT22;24915;50.858;4.376;2023-03-23T16:06:38;15.70;99.90
39189;DHT22;24915;50.858;4.376;2023-03-23T16:09:05;15.80;99.90
39189;DHT22;24915;50.858;4.376;2023-03-23T16:11:32;15.70;99.90
39189;DHT22;24915;50.858;4.376;2023-03-23T16:13:59;15.70;99.90
39189;DHT22;24915;50.858;4.376;2023-03-23T16:16:28;15.70;99.90
39189;DHT22;24915;50.858;4.376;2023-03-23T16:18:55;15.70;99.90
39189;DHT22;24915;50.858;4.376;2023-03-23T16:21:21;15.80;99.90
39189;DHT22;24915;50.858;4.376;2023-03-23T16:23:47;15.70;99.90
39189;DHT22;24915;50.858;4.376;2023-03-23T16:26:14;15.70;99.90
39189;DHT22;24915;50.858;4.376;2023-03-23T16:28:40;15.70;99.90
39189;DHT22;24915;50.858;4.376;2023-03-23T16:31:06;15.80;99.90
39189;DHT22;24915;50.858;4.376;2023-03-23T16:33:32;15.90;99.90
39189;DHT22;24915;50.858;4.376;2023-03-23T16:35:57;15.90;99.90
39189;DHT22;24915;50.858;4.376;2023-03-23T16:38:23;15.90;99.90
39189;DHT22;24915;50.858;4.376;2023-03-23T16:40:49;15.80;99.90
39189;DHT22;24915;50.858;4.376;2023-03-23T16:43:15;15.80;99.90
39189;DHT22;24915;50.858;4.376;2023-03-23T16:45:42;15.70;99.90
39189;DHT22;24915;50.858;4.376;2023-03-23T16:48:08;15.60;99.90
39189;DHT22;24915;50.858;4.376;2023-03-23T16:50:37;15.50;99.90
39189;DHT22;24915;50.858;4.376;2023-03-23T16:53:04;15.50;99.90
39189;DHT22;24915;50.858;4.376;2023-03-23T16:55:30;15.50;99.90
39189;DHT22;24915;50.858;4.376;2023-03-23T16:57:57;15.50;99.90
39189;DHT22;24915;50.858;4.376;2023-03-23T17:00:24;15.40;99.90
39189;DHT22;24915;50.858;4.376;2023-03-23T17:02:52;15.40;99.90
39189;DHT22;24915;50.858;4.376;2023-03-23T17:05:25;15.40;99.90
39189;DHT22;24915;50.858;4.376;2023-03-23T17:07:51;15.30;99.90
39189;DHT22;24915;50.858;4.376;2023-03-23T17:10:19;15.30;99.90
39189;DHT22;24915;50.858;4.376;2023-03-23T17:12:45;15.20;99.90
39189;DHT22;24915;50.858;4.376;2023-03-23T17:15:11;15.20;99.90
39189;DHT22;24915;50.858;4.376;2023-03-23T17:17:37;15.20;99.90
39189;DHT22;24915;50.858;4.376;2023-03-23T17:20:05;15.10;99.90
39189;DHT22;24915;50.858;4.376;2023-03-23T17:22:31;15.10;99.90
39189;DHT22;24915;50.858;4.376;2023-03-23T17:24:56;15.10;99.90
39189;DHT22;24915;50.858;4.376;2023-03-23T17:27:23;15.10;99.90
39189;DHT22;24915;50.858;4.376;2023-03-23T17:29:50;15.10;99.90
39189;DHT22;24915;50.858;4.376;2023-03-23T17:32:16;15.10;99.90
39189;DHT22;24915;50.858;4.376;2023-03-23T17:34:42;15.10;99.90
39189;DHT22;24915;50.858;4.376;2023-03-23T17:37:08;15.10;99.90
39189;DHT22;24915;50.858;4.376;2023-03-23T17:39:34;15.10;99.90
39189;DHT22;24915;50.858;4.376;2023-03-23T17:42:01;15.10;99.90